sensor_id;sensor_type;location;lat;lon;timestamp;P1;durP1;ratioP1;P2;durP2;ratioP2
13641;SDS011;6894;52.196;9.904;2023-03-03T00:00:59;26.17;;;12.63;;
13641;SDS011;6894;52.196;9.904;2023-03-03T00:03:26;19.30;;;11.37;;
13641;SDS011;6894;52.196;9.904;2023-03-03T00:05:54;14.70;;;9.87;;
13641;SDS011;6894;52.196;9.904;2023-03-03T00:08:21;30.00;;;11.77;;
13641;SDS011;6894;52.196;9.904;2023-03-03T00:10:48;22.63;;;11.97;;
13641;SDS011;6894;52.196;9.904;2023-03-03T00:13:15;34.07;;;14.77;;
13641;SDS011;6894;52.196;9.904;2023-03-03T00:15:43;20.00;;;10.93;;
13641;SDS011;6894;52.196;9.904;2023-03-03T00:18:14;30.10;;;13.57;;
13641;SDS011;6894;52.196;9.904;2023-03-03T00:20:47;30.87;;;14.07;;
13641;SDS011;6894;52.196;9.904;2023-03-03T00:23:21;23.67;;;9.33;;
13641;SDS011;6894;52.196;9.904;2023-03-03T00:25:53;17.57;;;10.10;;
13641;SDS011;6894;52.196;9.904;2023-03-03T00:28:22;17.13;;;10.77;;
13641;SDS011;6894;52.196;9.904;2023-03-03T00:30:51;21.40;;;10.57;;
13641;SDS011;6894;52.196;9.904;2023-03-03T00:33:22;20.17;;;9.87;;
13641;SDS011;6894;52.196;9.904;2023-03-03T00:35:56;18.47;;;10.17;;
13641;SDS011;6894;52.196;9.904;2023-03-03T00:38:33;20.30;;;10.20;;
13641;SDS011;6894;52.196;9.904;2023-03-03T00:41:00;16.33;;;8.83;;
13641;SDS011;6894;52.196;9.904;2023-03-03T00:43:27;19.30;;;10.13;;
13641;SDS011;6894;52.196;9.904;2023-03-03T00:46:00;21.93;;;10.53;;
13641;SDS011;6894;52.196;9.904;2023-03-03T00:48:28;19.50;;;9.73;;
13641;SDS011;6894;52.196;9.904;2023-03-03T00:50:56;20.93;;;10.63;;
13641;SDS011;6894;52.196;9.904;2023-03-03T00:53:24;19.77;;;9.93;;
13641;SDS011;6894;52.196;9.904;2023-03-03T00:55:54;15.13;;;9.97;;
13641;SDS011;6894;52.196;9.904;2023-03-03T00:58:22;21.53;;;10.80;;
13641;SDS011;6894;52.196;9.904;2023-03-03T01:00:50;18.70;;;9.93;;
13641;SDS011;6894;52.196;9.904;2023-03-03T01:03:18;18.00;;;10.00;;
13641;SDS011;6894;52.196;9.904;2023-03-03T01:05:47;16.17;;;10.57;;
13641;SDS011;6894;52.196;9.904;2023-03-03T01:08:14;21.50;;;10.03;;
13641;SDS011;6894;52.196;9.904;2023-03-03T01:10:41;17.27;;;10.50;;
13641;SDS011;6894;52.196;9.904;2023-03-03T01:13:12;17.30;;;10.03;;
13641;SDS011;6894;52.196;9.904;2023-03-03T01:15:39;21.27;;;10.50;;
13641;SDS011;6894;52.196;9.904;2023-03-03T01:18:07;15.57;;;9.77;;
13641;SDS011;6894;52.196;9.904;2023-03-03T01:20:35;14.60;;;8.90;;
13641;SDS011;6894;52.196;9.904;2023-03-03T01:23:02;13.70;;;8.93;;
13641;SDS011;6894;52.196;9.904;2023-03-03T01:25:29;12.07;;;8.60;;
13641;SDS011;6894;52.196;9.904;2023-03-03T01:27:56;23.93;;;10.43;;
13641;SDS011;6894;52.196;9.904;2023-03-03T01:30:24;17.33;;;9.47;;
13641;SDS011;6894;52.196;9.904;2023-03-03T01:32:51;21.40;;;9.57;;
13641;SDS011;6894;52.196;9.904;2023-03-03T01:35:18;19.07;;;9.60;;
13641;SDS011;6894;52.196;9.904;2023-03-03T01:37:45;13.67;;;9.50;;
13641;SDS011;6894;52.196;9.904;2023-03-03T01:40:13;15.60;;;8.60;;
13641;SDS011;6894;52.196;9.904;2023-03-03T01:42:42;15.83;;;8.53;;
13641;SDS011;6894;52.196;9.904;2023-03-03T01:45:09;14.93;;;7.97;;
13641;SDS011;6894;52.196;9.904;2023-03-03T01:47:41;12.00;;;7.80;;
13641;SDS011;6894;52.196;9.904;2023-03-03T01:50:11;12.63;;;7.43;;
13641;SDS011;6894;52.196;9.904;2023-03-03T01:52:44;12.67;;;7.20;;
13641;SDS011;6894;52.196;9.904;2023-03-03T01:55:13;15.47;;;7.87;;
13641;SDS011;6894;52.196;9.904;2023-03-03T01:57:45;13.87;;;7.67;;
13641;SDS011;6894;52.196;9.904;2023-03-03T02:00:17;14.17;;;8.67;;
13641;SDS011;6894;52.196;9.904;2023-03-03T02:02:46;16.47;;;7.40;;
13641;SDS011;6894;52.196;9.904;2023-03-03T02:05:13;16.87;;;9.03;;
13641;SDS011;6894;52.196;9.904;2023-03-03T02:07:41;14.20;;;8.90;;
13641;SDS011;6894;52.196;9.904;2023-03-03T02:10:09;15.40;;;8.23;;
13641;SDS011;6894;52.196;9.904;2023-03-03T02:12:39;14.63;;;8.47;;
13641;SDS011;6894;52.196;9.904;2023-03-03T02:15:15;19.57;;;9.40;;
13641;SDS011;6894;52.196;9.904;2023-03-03T02:17:48;15.90;;;8.80;;
13641;SDS011;6894;52.196;9.904;2023-03-03T02:20:21;17.77;;;9.20;;
13641;SDS011;6894;52.196;9.904;2023-03-03T02:22:57;21.50;;;9.87;;
13641;SDS011;6894;52.196;9.904;2023-03-03T02:25:31;18.37;;;9.70;;
13641;SDS011;6894;52.196;9.904;2023-03-03T02:28:05;17.83;;;9.20;;
13641;SDS011;6894;52.196;9.904;2023-03-03T02:30:35;18.30;;;10.37;;
13641;SDS011;6894;52.196;9.904;2023-03-03T02:33:03;30.40;;;11.47;;
13641;SDS011;6894;52.196;9.904;2023-03-03T02:35:31;24.80;;;10.40;;
13641;SDS011;6894;52.196;9.904;2023-03-03T02:38:11;34.70;;;13.10;;
13641;SDS011;6894;52.196;9.904;2023-03-03T02:40:46;34.67;;;12.77;;
13641;SDS011;6894;52.196;9.904;2023-03-03T02:43:23;50.53;;;15.83;;
13641;SDS011;6894;52.196;9.904;2023-03-03T02:45:54;51.50;;;15.80;;
13641;SDS011;6894;52.196;9.904;2023-03-03T02:48:21;57.83;;;17.37;;
13641;SDS011;6894;52.196;9.904;2023-03-03T02:50:48;43.43;;;14.60;;
13641;SDS011;6894;52.196;9.904;2023-03-03T02:53:15;37.33;;;13.47;;
13641;SDS011;6894;52.196;9.904;2023-03-03T02:55:42;32.17;;;11.83;;
13641;SDS011;6894;52.196;9.904;2023-03-03T02:58:08;32.70;;;12.53;;
13641;SDS011;6894;52.196;9.904;2023-03-03T03:00:36;34.80;;;13.13;;
13641;SDS011;6894;52.196;9.904;2023-03-03T03:03:03;34.60;;;12.53;;
13641;SDS011;6894;52.196;9.904;2023-03-03T03:05:30;33.93;;;12.50;;
13641;SDS011;6894;52.196;9.904;2023-03-03T03:07:57;44.27;;;14.57;;
13641;SDS011;6894;52.196;9.904;2023-03-03T03:10:23;40.07;;;13.10;;
13641;SDS011;6894;52.196;9.904;2023-03-03T03:12:51;52.53;;;16.10;;
13641;SDS011;6894;52.196;9.904;2023-03-03T03:15:17;41.87;;;13.83;;
13641;SDS011;6894;52.196;9.904;2023-03-03T03:17:45;45.23;;;13.90;;
13641;SDS011;6894;52.196;9.904;2023-03-03T03:20:12;38.87;;;12.53;;
13641;SDS011;6894;52.196;9.904;2023-03-03T03:22:39;30.20;;;11.97;;
13641;SDS011;6894;52.196;9.904;2023-03-03T03:25:06;22.87;;;10.20;;
13641;SDS011;6894;52.196;9.904;2023-03-03T03:27:33;18.23;;;9.30;;
13641;SDS011;6894;52.196;9.904;2023-03-03T03:30:00;17.10;;;8.33;;
13641;SDS011;6894;52.196;9.904;2023-03-03T03:32:27;33.00;;;12.87;;
13641;SDS011;6894;52.196;9.904;2023-03-03T03:34:55;28.30;;;10.50;;
13641;SDS011;6894;52.196;9.904;2023-03-03T03:37:22;22.70;;;10.73;;
13641;SDS011;6894;52.196;9.904;2023-03-03T03:39:48;21.20;;;9.30;;
13641;SDS011;6894;52.196;9.904;2023-03-03T03:42:15;20.90;;;9.87;;
13641;SDS011;6894;52.196;9.904;2023-03-03T03:44:42;28.43;;;11.50;;
13641;SDS011;6894;52.196;9.904;2023-03-03T03:47:09;17.90;;;9.67;;
13641;SDS011;6894;52.196;9.904;2023-03-03T03:49:36;14.47;;;7.40;;
13641;SDS011;6894;52.196;9.904;2023-03-03T03:52:04;11.90;;;6.27;;
13641;SDS011;6894;52.196;9.904;2023-03-03T03:54:31;16.43;;;9.10;;
13641;SDS011;6894;52.196;9.904;2023-03-03T03:56:57;16.07;;;8.63;;
13641;SDS011;6894;52.196;9.904;2023-03-03T03:59:24;18.47;;;9.33;;
13641;SDS011;6894;52.196;9.904;2023-03-03T04:01:51;17.77;;;10.20;;
13641;SDS011;6894;52.196;9.904;2023-03-03T04:04:18;27.17;;;11.83;;
13641;SDS011;6894;52.196;9.904;2023-03-03T04:06:44;25.37;;;11.67;;
13641;SDS011;6894;52.196;9.904;2023-03-03T04:09:12;24.13;;;11.37;;
13641;SDS011;6894;52.196;9.904;2023-03-03T04:11:39;35.37;;;13.17;;
13641;SDS011;6894;52.196;9.904;2023-03-03T04:14:06;34.43;;;13.87;;
13641;SDS011;6894;52.196;9.904;2023-03-03T04:16:33;35.13;;;15.03;;
13641;SDS011;6894;52.196;9.904;2023-03-03T04:18:59;31.80;;;13.30;;
13641;SDS011;6894;52.196;9.904;2023-03-03T04:21:26;31.97;;;13.67;;
13641;SDS011;6894;52.196;9.904;2023-03-03T04:23:53;30.20;;;12.67;;
13641;SDS011;6894;52.196;9.904;2023-03-03T04:26:21;33.37;;;13.37;;
13641;SDS011;6894;52.196;9.904;2023-03-03T04:28:48;20.17;;;9.63;;
13641;SDS011;6894;52.196;9.904;2023-03-03T04:31:15;14.80;;;8.00;;
13641;SDS011;6894;52.196;9.904;2023-03-03T04:33:41;16.50;;;8.27;;
13641;SDS011;6894;52.196;9.904;2023-03-03T04:36:08;11.83;;;6.67;;
13641;SDS011;6894;52.196;9.904;2023-03-03T04:38:35;13.83;;;7.90;;
13641;SDS011;6894;52.196;9.904;2023-03-03T04:41:01;12.27;;;8.20;;
13641;SDS011;6894;52.196;9.904;2023-03-03T04:43:30;15.77;;;8.60;;
13641;SDS011;6894;52.196;9.904;2023-03-03T04:45:57;16.57;;;8.83;;
13641;SDS011;6894;52.196;9.904;2023-03-03T04:48:23;12.50;;;8.27;;
13641;SDS011;6894;52.196;9.904;2023-03-03T04:50:50;15.03;;;7.63;;
13641;SDS011;6894;52.196;9.904;2023-03-03T04:53:17;13.77;;;9.07;;
13641;SDS011;6894;52.196;9.904;2023-03-03T04:55:43;16.87;;;8.40;;
13641;SDS011;6894;52.196;9.904;2023-03-03T04:58:10;18.23;;;9.30;;
13641;SDS011;6894;52.196;9.904;2023-03-03T05:00:39;13.83;;;7.97;;
13641;SDS011;6894;52.196;9.904;2023-03-03T05:03:05;20.27;;;9.93;;
13641;SDS011;6894;52.196;9.904;2023-03-03T05:05:32;15.60;;;8.27;;
13641;SDS011;6894;52.196;9.904;2023-03-03T05:07:59;18.27;;;9.07;;
13641;SDS011;6894;52.196;9.904;2023-03-03T05:10:26;19.10;;;9.47;;
13641;SDS011;6894;52.196;9.904;2023-03-03T05:12:53;17.77;;;9.50;;
13641;SDS011;6894;52.196;9.904;2023-03-03T05:15:20;17.23;;;9.40;;
13641;SDS011;6894;52.196;9.904;2023-03-03T05:17:48;21.47;;;11.13;;
13641;SDS011;6894;52.196;9.904;2023-03-03T05:20:17;19.10;;;9.67;;
13641;SDS011;6894;52.196;9.904;2023-03-03T05:22:44;23.27;;;10.30;;
13641;SDS011;6894;52.196;9.904;2023-03-03T05:25:11;19.33;;;10.17;;
13641;SDS011;6894;52.196;9.904;2023-03-03T05:27:38;25.17;;;10.80;;
13641;SDS011;6894;52.196;9.904;2023-03-03T05:30:05;22.30;;;11.13;;
13641;SDS011;6894;52.196;9.904;2023-03-03T05:32:33;27.67;;;12.10;;
13641;SDS011;6894;52.196;9.904;2023-03-03T05:35:01;18.00;;;10.80;;
13641;SDS011;6894;52.196;9.904;2023-03-03T05:37:28;23.07;;;11.13;;
13641;SDS011;6894;52.196;9.904;2023-03-03T05:39:55;26.80;;;13.40;;
13641;SDS011;6894;52.196;9.904;2023-03-03T05:42:22;24.73;;;12.07;;
13641;SDS011;6894;52.196;9.904;2023-03-03T05:44:48;21.73;;;11.07;;
13641;SDS011;6894;52.196;9.904;2023-03-03T05:47:15;25.97;;;11.50;;
13641;SDS011;6894;52.196;9.904;2023-03-03T05:49:42;24.57;;;10.93;;
13641;SDS011;6894;52.196;9.904;2023-03-03T05:52:10;24.63;;;11.83;;
13641;SDS011;6894;52.196;9.904;2023-03-03T05:54:36;26.33;;;12.03;;
13641;SDS011;6894;52.196;9.904;2023-03-03T05:57:03;28.43;;;12.23;;
13641;SDS011;6894;52.196;9.904;2023-03-03T05:59:30;27.43;;;12.67;;
13641;SDS011;6894;52.196;9.904;2023-03-03T06:01:57;30.40;;;12.97;;
13641;SDS011;6894;52.196;9.904;2023-03-03T06:04:23;27.97;;;13.53;;
13641;SDS011;6894;52.196;9.904;2023-03-03T06:06:50;23.10;;;11.83;;
13641;SDS011;6894;52.196;9.904;2023-03-03T06:09:18;19.47;;;10.50;;
13641;SDS011;6894;52.196;9.904;2023-03-03T06:11:45;26.70;;;11.33;;
13641;SDS011;6894;52.196;9.904;2023-03-03T06:14:12;27.17;;;11.73;;
13641;SDS011;6894;52.196;9.904;2023-03-03T06:16:38;29.90;;;12.30;;
13641;SDS011;6894;52.196;9.904;2023-03-03T06:19:05;27.27;;;13.37;;
13641;SDS011;6894;52.196;9.904;2023-03-03T06:21:32;27.77;;;11.93;;
13641;SDS011;6894;52.196;9.904;2023-03-03T06:23:59;24.23;;;11.53;;
13641;SDS011;6894;52.196;9.904;2023-03-03T06:26:27;25.97;;;11.97;;
13641;SDS011;6894;52.196;9.904;2023-03-03T06:28:53;25.90;;;11.10;;
13641;SDS011;6894;52.196;9.904;2023-03-03T06:31:20;18.03;;;9.23;;
13641;SDS011;6894;52.196;9.904;2023-03-03T06:33:47;26.53;;;11.33;;
13641;SDS011;6894;52.196;9.904;2023-03-03T06:36:15;21.57;;;11.37;;
13641;SDS011;6894;52.196;9.904;2023-03-03T06:38:42;32.40;;;12.00;;
13641;SDS011;6894;52.196;9.904;2023-03-03T06:41:09;27.53;;;11.40;;
13641;SDS011;6894;52.196;9.904;2023-03-03T06:43:37;19.33;;;10.67;;
13641;SDS011;6894;52.196;9.904;2023-03-03T06:46:04;28.57;;;12.03;;
13641;SDS011;6894;52.196;9.904;2023-03-03T06:48:31;25.50;;;11.70;;
13641;SDS011;6894;52.196;9.904;2023-03-03T06:50:59;22.93;;;10.90;;
13641;SDS011;6894;52.196;9.904;2023-03-03T06:53:29;25.73;;;10.87;;
13641;SDS011;6894;52.196;9.904;2023-03-03T06:55:58;22.50;;;10.33;;
13641;SDS011;6894;52.196;9.904;2023-03-03T06:58:27;29.87;;;11.70;;
13641;SDS011;6894;52.196;9.904;2023-03-03T07:00:57;31.80;;;12.40;;
13641;SDS011;6894;52.196;9.904;2023-03-03T07:03:25;27.97;;;12.13;;
13641;SDS011;6894;52.196;9.904;2023-03-03T07:05:53;30.30;;;12.57;;
13641;SDS011;6894;52.196;9.904;2023-03-03T07:08:21;27.27;;;11.57;;
13641;SDS011;6894;52.196;9.904;2023-03-03T07:10:49;26.43;;;11.90;;
13641;SDS011;6894;52.196;9.904;2023-03-03T07:13:18;29.30;;;11.23;;
13641;SDS011;6894;52.196;9.904;2023-03-03T07:15:46;31.80;;;13.10;;
13641;SDS011;6894;52.196;9.904;2023-03-03T07:18:30;27.10;;;13.03;;
13641;SDS011;6894;52.196;9.904;2023-03-03T07:21:05;32.83;;;11.50;;
13641;SDS011;6894;52.196;9.904;2023-03-03T07:23:39;32.37;;;12.93;;
13641;SDS011;6894;52.196;9.904;2023-03-03T07:26:07;39.73;;;14.50;;
13641;SDS011;6894;52.196;9.904;2023-03-03T07:28:38;29.67;;;13.70;;
13641;SDS011;6894;52.196;9.904;2023-03-03T07:31:15;31.67;;;11.93;;
13641;SDS011;6894;52.196;9.904;2023-03-03T07:33:51;30.57;;;13.43;;
13641;SDS011;6894;52.196;9.904;2023-03-03T07:36:25;26.90;;;11.97;;
13641;SDS011;6894;52.196;9.904;2023-03-03T07:38:54;35.33;;;14.17;;
13641;SDS011;6894;52.196;9.904;2023-03-03T07:41:24;44.70;;;15.13;;
13641;SDS011;6894;52.196;9.904;2023-03-03T07:43:51;40.43;;;14.60;;
13641;SDS011;6894;52.196;9.904;2023-03-03T07:46:21;32.67;;;12.63;;
13641;SDS011;6894;52.196;9.904;2023-03-03T07:48:53;35.47;;;13.20;;
13641;SDS011;6894;52.196;9.904;2023-03-03T07:51:21;39.03;;;14.27;;
13641;SDS011;6894;52.196;9.904;2023-03-03T07:53:52;34.53;;;13.37;;
13641;SDS011;6894;52.196;9.904;2023-03-03T07:56:30;40.80;;;13.20;;
13641;SDS011;6894;52.196;9.904;2023-03-03T07:59:01;37.70;;;14.43;;
13641;SDS011;6894;52.196;9.904;2023-03-03T08:01:37;40.00;;;14.80;;
13641;SDS011;6894;52.196;9.904;2023-03-03T08:06:57;31.37;;;12.17;;
13641;SDS011;6894;52.196;9.904;2023-03-03T08:12:28;31.13;;;14.07;;
13641;SDS011;6894;52.196;9.904;2023-03-03T08:15:13;26.20;;;12.43;;
13641;SDS011;6894;52.196;9.904;2023-03-03T08:17:43;38.00;;;14.70;;
13641;SDS011;6894;52.196;9.904;2023-03-03T08:23:08;43.03;;;16.57;;
13641;SDS011;6894;52.196;9.904;2023-03-03T08:25:35;38.43;;;14.77;;
13641;SDS011;6894;52.196;9.904;2023-03-03T08:28:02;38.13;;;14.73;;
13641;SDS011;6894;52.196;9.904;2023-03-03T08:30:29;47.53;;;17.10;;
13641;SDS011;6894;52.196;9.904;2023-03-03T08:32:56;48.67;;;15.90;;
13641;SDS011;6894;52.196;9.904;2023-03-03T08:35:22;46.97;;;16.20;;
13641;SDS011;6894;52.196;9.904;2023-03-03T08:37:50;42.33;;;15.03;;
13641;SDS011;6894;52.196;9.904;2023-03-03T08:40:18;35.70;;;14.57;;
13641;SDS011;6894;52.196;9.904;2023-03-03T08:42:44;50.90;;;17.57;;
13641;SDS011;6894;52.196;9.904;2023-03-03T08:45:11;52.37;;;16.40;;
13641;SDS011;6894;52.196;9.904;2023-03-03T08:47:38;40.70;;;15.43;;
13641;SDS011;6894;52.196;9.904;2023-03-03T08:50:06;47.20;;;17.73;;
13641;SDS011;6894;52.196;9.904;2023-03-03T08:52:33;52.03;;;19.03;;
13641;SDS011;6894;52.196;9.904;2023-03-03T08:55:01;33.60;;;15.20;;
13641;SDS011;6894;52.196;9.904;2023-03-03T08:57:27;44.50;;;14.43;;
13641;SDS011;6894;52.196;9.904;2023-03-03T08:59:54;33.73;;;16.07;;
13641;SDS011;6894;52.196;9.904;2023-03-03T09:02:21;41.13;;;14.93;;
13641;SDS011;6894;52.196;9.904;2023-03-03T09:04:48;28.10;;;14.13;;
13641;SDS011;6894;52.196;9.904;2023-03-03T09:07:14;36.93;;;14.70;;
13641;SDS011;6894;52.196;9.904;2023-03-03T09:09:41;35.57;;;14.37;;
13641;SDS011;6894;52.196;9.904;2023-03-03T09:12:13;33.67;;;16.40;;
13641;SDS011;6894;52.196;9.904;2023-03-03T09:14:41;34.37;;;13.73;;
13641;SDS011;6894;52.196;9.904;2023-03-03T09:17:18;33.53;;;14.80;;
13641;SDS011;6894;52.196;9.904;2023-03-03T09:19:50;41.43;;;16.27;;
13641;SDS011;6894;52.196;9.904;2023-03-03T09:22:18;28.63;;;13.53;;
13641;SDS011;6894;52.196;9.904;2023-03-03T09:24:46;34.67;;;14.97;;
13641;SDS011;6894;52.196;9.904;2023-03-03T09:27:20;25.13;;;13.27;;
13641;SDS011;6894;52.196;9.904;2023-03-03T09:29:53;40.00;;;15.93;;
13641;SDS011;6894;52.196;9.904;2023-03-03T09:32:23;40.30;;;15.27;;
13641;SDS011;6894;52.196;9.904;2023-03-03T09:34:56;31.43;;;14.23;;
13641;SDS011;6894;52.196;9.904;2023-03-03T09:37:25;31.27;;;14.17;;
13641;SDS011;6894;52.196;9.904;2023-03-03T09:39:56;30.20;;;14.13;;
13641;SDS011;6894;52.196;9.904;2023-03-03T09:45:23;40.27;;;15.67;;
13641;SDS011;6894;52.196;9.904;2023-03-03T09:48:02;22.97;;;12.20;;
13641;SDS011;6894;52.196;9.904;2023-03-03T09:50:54;37.07;;;15.27;;
13641;SDS011;6894;52.196;9.904;2023-03-03T09:53:49;28.97;;;13.17;;
13641;SDS011;6894;52.196;9.904;2023-03-03T09:56:34;33.73;;;13.13;;
13641;SDS011;6894;52.196;9.904;2023-03-03T09:59:15;23.03;;;12.93;;
13641;SDS011;6894;52.196;9.904;2023-03-03T10:01:55;35.23;;;15.30;;
13641;SDS011;6894;52.196;9.904;2023-03-03T10:04:43;28.53;;;14.90;;
13641;SDS011;6894;52.196;9.904;2023-03-03T10:07:31;23.53;;;12.03;;
13641;SDS011;6894;52.196;9.904;2023-03-03T10:10:12;28.43;;;14.17;;
13641;SDS011;6894;52.196;9.904;2023-03-03T10:13:02;24.83;;;12.00;;
13641;SDS011;6894;52.196;9.904;2023-03-03T10:15:45;23.73;;;11.87;;
13641;SDS011;6894;52.196;9.904;2023-03-03T10:18:22;28.70;;;12.37;;
13641;SDS011;6894;52.196;9.904;2023-03-03T10:21:00;25.87;;;12.80;;
13641;SDS011;6894;52.196;9.904;2023-03-03T10:23:37;37.90;;;16.30;;
13641;SDS011;6894;52.196;9.904;2023-03-03T10:26:18;34.27;;;15.43;;
13641;SDS011;6894;52.196;9.904;2023-03-03T10:28:57;34.17;;;15.03;;
13641;SDS011;6894;52.196;9.904;2023-03-03T10:31:38;33.70;;;16.00;;
13641;SDS011;6894;52.196;9.904;2023-03-03T10:34:21;115.43;;;51.67;;
13641;SDS011;6894;52.196;9.904;2023-03-03T10:36:58;35.57;;;15.53;;
13641;SDS011;6894;52.196;9.904;2023-03-03T10:39:40;30.43;;;14.80;;
13641;SDS011;6894;52.196;9.904;2023-03-03T10:42:20;28.27;;;14.47;;
13641;SDS011;6894;52.196;9.904;2023-03-03T10:45:05;36.70;;;15.17;;
13641;SDS011;6894;52.196;9.904;2023-03-03T10:50:42;35.70;;;14.80;;
13641;SDS011;6894;52.196;9.904;2023-03-03T10:53:20;31.60;;;15.60;;
13641;SDS011;6894;52.196;9.904;2023-03-03T10:55:54;30.33;;;15.93;;
13641;SDS011;6894;52.196;9.904;2023-03-03T11:01:29;32.47;;;15.67;;
13641;SDS011;6894;52.196;9.904;2023-03-03T11:04:17;42.20;;;19.80;;
13641;SDS011;6894;52.196;9.904;2023-03-03T11:06:53;34.43;;;19.00;;
13641;SDS011;6894;52.196;9.904;2023-03-03T11:09:30;45.23;;;19.20;;
13641;SDS011;6894;52.196;9.904;2023-03-03T11:12:09;32.47;;;16.17;;
13641;SDS011;6894;52.196;9.904;2023-03-03T11:14:50;50.23;;;20.67;;
13641;SDS011;6894;52.196;9.904;2023-03-03T11:17:32;39.23;;;17.03;;
13641;SDS011;6894;52.196;9.904;2023-03-03T11:20:19;37.97;;;17.17;;
13641;SDS011;6894;52.196;9.904;2023-03-03T11:22:57;34.63;;;15.67;;
13641;SDS011;6894;52.196;9.904;2023-03-03T11:25:32;43.00;;;17.43;;
13641;SDS011;6894;52.196;9.904;2023-03-03T11:28:10;35.80;;;16.33;;
13641;SDS011;6894;52.196;9.904;2023-03-03T11:30:55;45.53;;;18.60;;
13641;SDS011;6894;52.196;9.904;2023-03-03T11:33:38;35.40;;;17.33;;
13641;SDS011;6894;52.196;9.904;2023-03-03T11:36:13;36.37;;;16.57;;
13641;SDS011;6894;52.196;9.904;2023-03-03T11:38:47;34.33;;;15.53;;
13641;SDS011;6894;52.196;9.904;2023-03-03T11:41:22;43.83;;;18.30;;
13641;SDS011;6894;52.196;9.904;2023-03-03T11:43:56;33.67;;;16.00;;
13641;SDS011;6894;52.196;9.904;2023-03-03T11:46:29;53.27;;;19.67;;
13641;SDS011;6894;52.196;9.904;2023-03-03T11:49:02;41.57;;;19.63;;
13641;SDS011;6894;52.196;9.904;2023-03-03T11:51:35;43.50;;;20.80;;
13641;SDS011;6894;52.196;9.904;2023-03-03T11:54:14;32.10;;;17.07;;
13641;SDS011;6894;52.196;9.904;2023-03-03T11:56:45;36.73;;;16.63;;
13641;SDS011;6894;52.196;9.904;2023-03-03T11:59:18;40.17;;;17.30;;
13641;SDS011;6894;52.196;9.904;2023-03-03T12:01:59;28.57;;;15.53;;
13641;SDS011;6894;52.196;9.904;2023-03-03T12:04:39;30.20;;;14.23;;
13641;SDS011;6894;52.196;9.904;2023-03-03T12:07:15;28.50;;;14.10;;
13641;SDS011;6894;52.196;9.904;2023-03-03T12:09:59;27.57;;;15.23;;
13641;SDS011;6894;52.196;9.904;2023-03-03T12:12:36;31.23;;;14.17;;
13641;SDS011;6894;52.196;9.904;2023-03-03T12:15:13;25.07;;;13.43;;
13641;SDS011;6894;52.196;9.904;2023-03-03T12:18:02;27.57;;;14.77;;
13641;SDS011;6894;52.196;9.904;2023-03-03T12:20:42;27.30;;;14.37;;
13641;SDS011;6894;52.196;9.904;2023-03-03T12:23:29;26.40;;;13.60;;
13641;SDS011;6894;52.196;9.904;2023-03-03T12:26:16;22.90;;;12.03;;
13641;SDS011;6894;52.196;9.904;2023-03-03T12:28:51;26.00;;;13.03;;
13641;SDS011;6894;52.196;9.904;2023-03-03T12:31:28;29.97;;;13.07;;
13641;SDS011;6894;52.196;9.904;2023-03-03T12:34:02;23.43;;;11.97;;
13641;SDS011;6894;52.196;9.904;2023-03-03T12:36:42;20.60;;;11.37;;
13641;SDS011;6894;52.196;9.904;2023-03-03T12:39:41;23.73;;;13.20;;
13641;SDS011;6894;52.196;9.904;2023-03-03T12:42:15;24.87;;;12.33;;
13641;SDS011;6894;52.196;9.904;2023-03-03T12:44:59;22.43;;;11.70;;
13641;SDS011;6894;52.196;9.904;2023-03-03T12:47:35;22.97;;;11.63;;
13641;SDS011;6894;52.196;9.904;2023-03-03T12:50:09;19.10;;;11.43;;
13641;SDS011;6894;52.196;9.904;2023-03-03T12:52:53;22.13;;;12.10;;
13641;SDS011;6894;52.196;9.904;2023-03-03T12:55:35;20.77;;;11.77;;
13641;SDS011;6894;52.196;9.904;2023-03-03T12:58:10;23.93;;;10.97;;
13641;SDS011;6894;52.196;9.904;2023-03-03T13:00:47;20.30;;;11.23;;
13641;SDS011;6894;52.196;9.904;2023-03-03T13:03:26;20.43;;;10.87;;
13641;SDS011;6894;52.196;9.904;2023-03-03T13:06:03;17.20;;;10.27;;
13641;SDS011;6894;52.196;9.904;2023-03-03T13:08:48;23.70;;;11.93;;
13641;SDS011;6894;52.196;9.904;2023-03-03T13:11:31;18.53;;;11.13;;
13641;SDS011;6894;52.196;9.904;2023-03-03T13:14:16;23.63;;;11.97;;
13641;SDS011;6894;52.196;9.904;2023-03-03T13:16:53;19.03;;;10.47;;
13641;SDS011;6894;52.196;9.904;2023-03-03T13:19:29;24.27;;;11.10;;
13641;SDS011;6894;52.196;9.904;2023-03-03T13:22:03;19.60;;;11.63;;
13641;SDS011;6894;52.196;9.904;2023-03-03T13:24:36;21.80;;;10.83;;
13641;SDS011;6894;52.196;9.904;2023-03-03T13:27:12;17.83;;;9.53;;
13641;SDS011;6894;52.196;9.904;2023-03-03T13:29:42;22.87;;;10.40;;
13641;SDS011;6894;52.196;9.904;2023-03-03T13:32:16;20.17;;;11.73;;
13641;SDS011;6894;52.196;9.904;2023-03-03T13:34:48;21.53;;;10.40;;
13641;SDS011;6894;52.196;9.904;2023-03-03T13:37:20;18.47;;;10.33;;
13641;SDS011;6894;52.196;9.904;2023-03-03T13:39:53;18.67;;;10.73;;
13641;SDS011;6894;52.196;9.904;2023-03-03T13:42:28;18.27;;;11.17;;
13641;SDS011;6894;52.196;9.904;2023-03-03T13:45:04;18.67;;;10.00;;
13641;SDS011;6894;52.196;9.904;2023-03-03T13:47:42;18.40;;;10.60;;
13641;SDS011;6894;52.196;9.904;2023-03-03T13:50:17;24.03;;;11.63;;
13641;SDS011;6894;52.196;9.904;2023-03-03T13:52:52;19.77;;;10.57;;
13641;SDS011;6894;52.196;9.904;2023-03-03T13:55:38;24.63;;;11.27;;
13641;SDS011;6894;52.196;9.904;2023-03-03T13:58:12;19.40;;;10.70;;
13641;SDS011;6894;52.196;9.904;2023-03-03T14:00:49;25.13;;;11.50;;
13641;SDS011;6894;52.196;9.904;2023-03-03T14:06:19;21.60;;;11.57;;
13641;SDS011;6894;52.196;9.904;2023-03-03T14:11:48;24.80;;;11.90;;
13641;SDS011;6894;52.196;9.904;2023-03-03T14:14:29;15.87;;;9.90;;
13641;SDS011;6894;52.196;9.904;2023-03-03T14:17:07;25.80;;;11.47;;
13641;SDS011;6894;52.196;9.904;2023-03-03T14:19:41;24.13;;;13.57;;
13641;SDS011;6894;52.196;9.904;2023-03-03T14:22:15;22.17;;;11.90;;
13641;SDS011;6894;52.196;9.904;2023-03-03T14:27:37;22.43;;;11.43;;
13641;SDS011;6894;52.196;9.904;2023-03-03T14:30:28;18.10;;;10.33;;
13641;SDS011;6894;52.196;9.904;2023-03-03T14:32:58;27.67;;;13.33;;
13641;SDS011;6894;52.196;9.904;2023-03-03T14:35:28;17.03;;;10.33;;
13641;SDS011;6894;52.196;9.904;2023-03-03T14:38:00;21.47;;;11.60;;
13641;SDS011;6894;52.196;9.904;2023-03-03T14:40:29;19.87;;;10.43;;
13641;SDS011;6894;52.196;9.904;2023-03-03T14:42:58;21.67;;;10.73;;
13641;SDS011;6894;52.196;9.904;2023-03-03T14:45:31;17.00;;;11.27;;
13641;SDS011;6894;52.196;9.904;2023-03-03T14:48:09;19.67;;;10.87;;
13641;SDS011;6894;52.196;9.904;2023-03-03T14:50:40;18.60;;;11.67;;
13641;SDS011;6894;52.196;9.904;2023-03-03T14:53:13;21.97;;;11.63;;
13641;SDS011;6894;52.196;9.904;2023-03-03T14:55:41;18.53;;;13.07;;
13641;SDS011;6894;52.196;9.904;2023-03-03T14:58:26;21.40;;;11.27;;
13641;SDS011;6894;52.196;9.904;2023-03-03T15:03:43;18.27;;;11.03;;
13641;SDS011;6894;52.196;9.904;2023-03-03T15:06:25;14.97;;;8.90;;
13641;SDS011;6894;52.196;9.904;2023-03-03T15:11:45;19.00;;;10.43;;
13641;SDS011;6894;52.196;9.904;2023-03-03T15:14:16;23.83;;;10.77;;
13641;SDS011;6894;52.196;9.904;2023-03-03T15:16:49;18.93;;;10.60;;
13641;SDS011;6894;52.196;9.904;2023-03-03T15:19:35;25.30;;;11.13;;
13641;SDS011;6894;52.196;9.904;2023-03-03T15:22:10;21.20;;;11.40;;
13641;SDS011;6894;52.196;9.904;2023-03-03T15:24:44;17.23;;;10.57;;
13641;SDS011;6894;52.196;9.904;2023-03-03T15:27:18;20.97;;;10.80;;
13641;SDS011;6894;52.196;9.904;2023-03-03T15:29:53;14.87;;;9.20;;
13641;SDS011;6894;52.196;9.904;2023-03-03T15:32:28;18.47;;;11.53;;
13641;SDS011;6894;52.196;9.904;2023-03-03T15:35:05;22.10;;;13.47;;
13641;SDS011;6894;52.196;9.904;2023-03-03T15:37:44;20.03;;;11.53;;